createdAt,value
2023-12-11T00:02:23.108Z,-0.25
2023-12-11T00:05:25.719Z,-0.30
2023-12-11T00:08:28.366Z,-0.41
2023-12-11T00:11:30.927Z,-0.47
2023-12-11T00:14:33.950Z,-0.44
2023-12-11T00:17:36.557Z,-0.42
2023-12-11T00:20:39.187Z,-0.42
2023-12-11T00:23:41.757Z,-0.49
2023-12-11T00:26:44.342Z,-0.52
2023-12-11T00:29:46.926Z,-0.61
2023-12-11T00:32:49.427Z,-0.68
2023-12-11T00:35:51.917Z,-0.90
2023-12-11T00:38:54.512Z,-0.87
2023-12-11T00:41:58.543Z,-0.84
2023-12-11T00:45:01.151Z,-0.75
2023-12-11T00:48:03.778Z,-0.77
2023-12-11T00:51:06.454Z,-0.83
2023-12-11T00:54:08.965Z,-0.83
2023-12-11T00:57:12.596Z,-0.83
2023-12-11T01:00:15.287Z,-0.75
2023-12-11T01:03:17.850Z,-0.76
2023-12-11T01:06:20.451Z,-0.80
2023-12-11T01:09:22.861Z,-0.81
2023-12-11T01:12:25.695Z,-0.82
2023-12-11T01:15:28.153Z,-0.86
2023-12-11T01:18:30.854Z,-0.79
2023-12-11T01:21:33.491Z,-0.78
2023-12-11T01:24:36.006Z,-0.82
2023-12-11T01:27:38.654Z,-0.78
2023-12-11T01:30:41.256Z,-0.81
2023-12-11T01:33:43.776Z,-0.75
2023-12-11T01:36:46.292Z,-0.73
2023-12-11T01:39:48.890Z,-0.70
2023-12-11T01:42:52.474Z,-0.77
2023-12-11T01:46:12.337Z,-0.67
2023-12-11T01:49:15.160Z,-0.61
2023-12-11T01:52:18.118Z,-0.67
2023-12-11T01:55:20.771Z,-0.66
2023-12-11T01:58:23.876Z,-0.67
2023-12-11T02:01:27.651Z,-0.60
2023-12-11T02:04:31.418Z,-0.60
2023-12-11T02:07:34.020Z,-0.58
2023-12-11T02:10:37.475Z,-0.61
2023-12-11T02:13:41.517Z,-0.56
2023-12-11T02:16:43.973Z,-0.54
2023-12-11T02:19:46.474Z,-0.54
2023-12-11T02:22:49.198Z,-0.52
2023-12-11T02:26:00.711Z,-0.53
2023-12-11T02:29:03.645Z,-0.51
2023-12-11T02:32:06.472Z,-0.41
2023-12-11T02:35:09.078Z,-0.52
2023-12-11T02:38:11.602Z,-0.54
2023-12-11T02:41:14.182Z,-0.57
2023-12-11T02:44:16.675Z,-0.58
2023-12-11T02:47:19.157Z,-0.55
2023-12-11T02:50:21.725Z,-0.54
2023-12-11T02:53:24.268Z,-0.51
2023-12-11T02:56:26.775Z,-0.55
2023-12-11T02:59:29.327Z,-0.52
2023-12-11T03:02:31.808Z,-0.50
2023-12-11T03:05:34.572Z,-0.50
2023-12-11T03:08:40.749Z,-0.43
2023-12-11T03:11:43.276Z,-0.41
2023-12-11T03:14:45.691Z,-0.48
2023-12-11T03:17:48.467Z,-0.42
2023-12-11T03:20:50.944Z,-0.38
2023-12-11T03:23:53.503Z,-0.42
2023-12-11T03:26:56.032Z,-0.40
2023-12-11T03:29:58.524Z,-0.36
2023-12-11T03:33:01.099Z,-0.39
2023-12-11T03:36:03.791Z,-0.41
2023-12-11T03:39:08.731Z,-0.36
2023-12-11T03:42:11.365Z,-0.39
2023-12-11T03:45:13.822Z,-0.44
2023-12-11T03:48:16.357Z,-0.32
2023-12-11T03:51:18.897Z,-0.33
2023-12-11T03:54:21.427Z,-0.51
2023-12-11T03:57:23.899Z,-0.47
2023-12-11T04:00:26.421Z,-0.42
2023-12-11T04:03:28.904Z,-0.37
2023-12-11T04:06:31.663Z,-0.30
2023-12-11T04:09:34.320Z,-0.39
2023-12-11T04:12:36.801Z,-0.42
2023-12-11T04:15:39.338Z,-0.37
2023-12-11T04:18:42.424Z,-0.33
2023-12-11T04:21:44.946Z,-0.26
2023-12-11T04:24:47.437Z,-0.31
2023-12-11T04:27:49.959Z,-0.27
2023-12-11T04:30:52.829Z,-0.32
2023-12-11T04:33:55.581Z,-0.25
2023-12-11T04:36:58.137Z,-0.19
2023-12-11T04:40:00.693Z,-0.26
2023-12-11T04:43:03.244Z,-0.25
2023-12-11T04:46:05.849Z,-0.33
2023-12-11T04:49:08.441Z,-0.31
2023-12-11T04:52:11.004Z,-0.24
2023-12-11T04:55:13.654Z,-0.27
2023-12-11T04:58:16.248Z,-0.21
2023-12-11T05:01:18.917Z,-0.31
2023-12-11T05:04:21.664Z,-0.26
2023-12-11T05:07:24.281Z,-0.42
2023-12-11T05:10:26.823Z,-0.44
2023-12-11T05:13:29.332Z,-0.45
2023-12-11T05:16:31.840Z,-0.39
2023-12-11T05:19:36.939Z,-0.43
2023-12-11T05:22:39.915Z,-0.37
2023-12-11T05:25:42.435Z,-0.25
2023-12-11T05:28:44.977Z,-0.33
2023-12-11T05:31:47.588Z,-0.28
2023-12-11T05:34:50.165Z,-0.24
2023-12-11T05:37:53.418Z,-0.29
2023-12-11T05:40:56.833Z,-0.19
2023-12-11T05:44:00.252Z,-0.24
2023-12-11T05:47:02.847Z,-0.15
2023-12-11T05:50:05.906Z,-0.17
2023-12-11T05:53:08.767Z,-0.11
2023-12-11T05:56:11.446Z,-0.22
2023-12-11T05:59:14.105Z,-0.16
2023-12-11T06:02:17.033Z,-0.15
2023-12-11T06:05:19.640Z,-0.12
2023-12-11T06:08:22.137Z,-0.09
2023-12-11T06:11:25.210Z,-0.07
2023-12-11T06:14:27.767Z,-0.13
2023-12-11T06:17:30.564Z,-0.10
2023-12-11T06:20:33.328Z,-0.12
2023-12-11T06:23:35.838Z,-0.18
2023-12-11T06:26:43.359Z,-0.19
2023-12-11T06:29:46.028Z,-0.19
2023-12-11T06:32:48.566Z,-0.19
2023-12-11T06:35:51.116Z,-0.23
2023-12-11T06:38:53.712Z,-0.24
2023-12-11T06:41:57.570Z,-0.37
2023-12-11T06:45:01.501Z,-0.31
2023-12-11T06:48:04.380Z,-0.32
2023-12-11T06:51:06.947Z,-0.23
2023-12-11T06:54:09.462Z,-0.29
2023-12-11T06:57:12.687Z,-0.34
2023-12-11T07:00:15.474Z,-0.37
2023-12-11T07:03:18.447Z,-0.30
2023-12-11T07:06:21.165Z,-0.31
2023-12-11T07:09:23.947Z,-0.38
2023-12-11T07:12:26.433Z,-0.33
2023-12-11T07:15:28.912Z,-0.40
2023-12-11T07:18:31.478Z,-0.36
2023-12-11T07:21:34.135Z,-0.44
2023-12-11T07:24:36.754Z,-0.48
2023-12-11T07:27:39.384Z,-0.55
2023-12-11T07:30:41.988Z,-0.56
2023-12-11T07:33:44.675Z,-0.54
2023-12-11T07:36:47.431Z,-0.51
2023-12-11T07:39:50.337Z,-0.47
2023-12-11T07:42:53.316Z,-0.46
2023-12-11T07:45:55.938Z,-0.50
2023-12-11T07:48:58.453Z,-0.45
2023-12-11T07:52:02.883Z,-0.41
2023-12-11T07:55:06.695Z,-0.35
2023-12-11T07:58:09.363Z,-0.26
2023-12-11T08:01:14.330Z,-0.31
2023-12-11T08:04:17.404Z,-0.42
2023-12-11T08:07:19.965Z,-0.29
2023-12-11T08:10:22.695Z,-0.40
2023-12-11T08:13:25.371Z,-0.38
2023-12-11T08:16:27.889Z,-0.42
2023-12-11T08:19:30.467Z,-0.43
2023-12-11T08:22:33.057Z,-0.32
2023-12-11T08:25:35.540Z,-0.38
2023-12-11T08:28:38.198Z,-0.39
2023-12-11T08:31:40.672Z,-0.45
2023-12-11T08:34:43.504Z,-0.40
2023-12-11T08:37:46.084Z,-0.43
2023-12-11T08:40:48.536Z,-0.46
2023-12-11T08:43:51.003Z,-0.42
2023-12-11T08:46:53.434Z,-0.33
2023-12-11T08:49:56.120Z,-0.26
2023-12-11T08:53:00.295Z,-0.24
2023-12-11T08:56:02.832Z,-0.19
2023-12-11T08:59:05.336Z,-0.13
2023-12-11T09:02:08.024Z,-0.20
2023-12-11T09:05:10.574Z,-0.25
2023-12-11T09:08:13.119Z,-0.21
2023-12-11T09:11:15.646Z,-0.26
2023-12-11T09:14:18.175Z,-0.22
2023-12-11T09:17:20.668Z,-0.24
2023-12-11T09:20:23.344Z,-0.05
2023-12-11T09:23:25.992Z,-0.03
2023-12-11T09:26:28.480Z,-0.10
2023-12-11T09:29:30.959Z,-0.08
2023-12-11T09:32:33.724Z,-0.06
2023-12-11T09:35:36.380Z,0.04
2023-12-11T09:38:39.211Z,0.12
2023-12-11T09:41:44.835Z,0.24
2023-12-11T09:44:49.754Z,0.31
2023-12-11T09:48:08.000Z,0.29
2023-12-11T09:51:15.375Z,0.06
2023-12-11T09:54:18.051Z,0.12
2023-12-11T09:57:20.910Z,0.15
2023-12-11T10:00:24.057Z,0.25
2023-12-11T10:03:26.698Z,0.24
2023-12-11T10:06:29.454Z,0.29
2023-12-11T10:09:36.361Z,0.13
2023-12-11T10:12:42.035Z,0.16
2023-12-11T10:15:44.969Z,0.13
2023-12-11T10:18:50.766Z,0.15
2023-12-11T10:21:53.630Z,0.16
2023-12-11T10:24:56.961Z,0.24
2023-12-11T10:28:07.876Z,0.28
2023-12-11T10:31:11.135Z,0.34
2023-12-11T10:34:14.266Z,0.31
2023-12-11T10:37:20.648Z,0.32
2023-12-11T10:40:23.174Z,0.40
2023-12-11T10:43:25.783Z,0.45
2023-12-11T10:46:29.044Z,0.56
2023-12-11T10:49:31.854Z,0.52
2023-12-11T10:52:35.084Z,0.57
2023-12-11T10:55:39.081Z,0.68
2023-12-11T10:58:41.758Z,0.73
2023-12-11T11:01:47.120Z,0.75
2023-12-11T11:04:50.076Z,0.73
2023-12-11T11:08:03.973Z,0.49
2023-12-11T11:11:16.028Z,0.50
2023-12-11T11:14:48.568Z,0.59
2023-12-11T11:18:01.577Z,0.58
2023-12-11T11:21:12.333Z,0.62
2023-12-11T11:24:28.036Z,0.54
2023-12-11T11:27:44.613Z,0.55
2023-12-11T11:30:52.571Z,0.53
2023-12-11T11:33:57.892Z,0.48
2023-12-11T11:37:00.668Z,0.48
2023-12-11T11:40:05.592Z,0.53
2023-12-11T11:43:12.318Z,0.63
2023-12-11T11:46:14.828Z,0.62
2023-12-11T11:49:27.527Z,0.62
2023-12-11T11:52:30.301Z,0.58
2023-12-11T11:55:33.352Z,0.55
2023-12-11T11:58:35.870Z,0.55
2023-12-11T12:01:51.326Z,0.61
2023-12-11T12:04:54.267Z,0.64
2023-12-11T12:07:57.704Z,0.64
2023-12-11T12:11:00.387Z,0.64
2023-12-11T12:14:02.896Z,0.68
2023-12-11T12:17:11.177Z,0.67
2023-12-11T12:20:15.830Z,0.67
2023-12-11T12:23:21.066Z,0.69
2023-12-11T12:26:23.656Z,0.69
2023-12-11T12:29:31.607Z,0.72
2023-12-11T12:32:34.511Z,0.78
2023-12-11T12:35:38.613Z,0.78
2023-12-11T12:38:41.482Z,0.78
2023-12-11T12:41:44.034Z,0.84
2023-12-11T12:44:47.354Z,0.91
2023-12-11T12:47:49.966Z,0.88
2023-12-11T12:51:04.668Z,0.96
2023-12-11T12:54:07.224Z,0.93
2023-12-11T12:57:09.790Z,0.98
2023-12-11T13:00:21.707Z,0.93
2023-12-11T13:03:24.906Z,0.97
2023-12-11T13:06:27.729Z,0.95
2023-12-11T13:09:33.903Z,1.07
2023-12-11T13:12:37.009Z,0.94
2023-12-11T13:15:40.594Z,0.94
2023-12-11T13:18:43.251Z,1.01
2023-12-11T13:21:45.857Z,0.98
2023-12-11T13:24:48.453Z,0.99
2023-12-11T13:27:51.384Z,1.01
2023-12-11T13:30:53.891Z,0.98
2023-12-11T13:33:56.437Z,1.02
2023-12-11T13:36:59.923Z,0.96
2023-12-11T13:40:02.617Z,0.99
2023-12-11T13:43:05.361Z,1.02
2023-12-11T13:46:08.696Z,0.97
2023-12-11T13:49:11.361Z,0.94
2023-12-11T13:52:13.883Z,1.15
2023-12-11T13:55:16.360Z,1.14
2023-12-11T13:58:18.904Z,1.09
2023-12-11T14:01:21.899Z,1.02
2023-12-11T14:04:25.724Z,1.13
2023-12-11T14:07:28.537Z,1.15
2023-12-11T14:10:32.076Z,0.98
2023-12-11T14:13:34.672Z,0.95
2023-12-11T14:16:37.264Z,0.96
2023-12-11T14:19:40.878Z,1.02
2023-12-11T14:22:43.410Z,0.98
2023-12-11T14:25:45.942Z,1.00
2023-12-11T14:28:48.676Z,1.03
2023-12-11T14:31:51.159Z,1.05
2023-12-11T14:34:53.630Z,1.09
2023-12-11T14:37:56.220Z,1.00
2023-12-11T14:40:59.809Z,1.12
2023-12-11T14:44:02.277Z,1.04
2023-12-11T14:47:06.239Z,0.98
2023-12-11T14:50:09.851Z,1.00
2023-12-11T14:53:12.491Z,0.98
2023-12-11T14:56:14.972Z,1.00
2023-12-11T14:59:20.150Z,1.15
2023-12-11T15:02:22.707Z,1.06
2023-12-11T15:05:25.466Z,1.12
2023-12-11T15:08:30.178Z,1.11
2023-12-11T15:11:36.657Z,1.21
2023-12-11T15:14:39.500Z,1.10
2023-12-11T15:17:41.979Z,1.12
2023-12-11T15:20:44.620Z,1.19
2023-12-11T15:23:47.115Z,1.19
2023-12-11T15:26:50.337Z,1.08
2023-12-11T15:29:52.830Z,1.05
2023-12-11T15:32:55.266Z,1.02
2023-12-11T15:35:57.802Z,1.03
2023-12-11T15:39:00.222Z,1.02
2023-12-11T15:42:02.636Z,1.09
2023-12-11T15:45:08.897Z,1.10
2023-12-11T15:48:23.614Z,1.09
2023-12-11T15:51:27.798Z,1.13
2023-12-11T15:54:30.273Z,1.14
2023-12-11T15:57:33.168Z,1.13
2023-12-11T16:00:35.838Z,1.10
2023-12-11T16:03:41.922Z,1.17
2023-12-11T16:06:44.628Z,1.29
2023-12-11T16:09:48.354Z,1.16
2023-12-11T16:12:50.959Z,1.18
2023-12-11T16:15:53.517Z,1.18
2023-12-11T16:18:56.513Z,1.29
2023-12-11T16:21:59.160Z,1.22
2023-12-11T16:25:01.833Z,1.18
2023-12-11T16:28:04.790Z,1.17
2023-12-11T16:31:07.560Z,1.14
2023-12-11T16:34:10.078Z,1.23
2023-12-11T16:37:12.617Z,1.46
2023-12-11T16:40:15.229Z,1.22
2023-12-11T16:43:19.024Z,1.16
2023-12-11T16:46:22.208Z,1.14
2023-12-11T16:49:24.751Z,1.07
2023-12-11T16:52:27.393Z,1.17
2023-12-11T16:55:30.105Z,1.32
2023-12-11T16:58:32.947Z,1.28
2023-12-11T17:01:35.582Z,1.21
2023-12-11T17:04:38.265Z,1.37
2023-12-11T17:07:40.807Z,1.20
2023-12-11T17:10:44.325Z,1.24
2023-12-11T17:13:46.827Z,1.24
2023-12-11T17:16:49.228Z,1.29
2023-12-11T17:19:51.828Z,1.25
2023-12-11T17:22:54.267Z,1.25
2023-12-11T17:25:56.669Z,1.30
2023-12-11T17:29:00.211Z,1.38
2023-12-11T17:32:02.738Z,1.37
2023-12-11T17:35:06.411Z,1.33
2023-12-11T17:38:08.916Z,1.42
2023-12-11T17:41:11.939Z,1.28
2023-12-11T17:44:15.335Z,1.30
2023-12-11T17:47:17.824Z,1.30
2023-12-11T17:50:20.253Z,1.30
2023-12-11T17:53:22.713Z,1.34
2023-12-11T17:56:25.303Z,1.43
2023-12-11T17:59:27.727Z,1.48
2023-12-11T18:02:30.160Z,1.44
2023-12-11T18:05:32.822Z,1.33
2023-12-11T18:08:35.276Z,1.57
2023-12-11T18:11:37.999Z,1.46
2023-12-11T18:14:41.278Z,1.41
2023-12-11T18:17:43.756Z,1.36
2023-12-11T18:20:46.249Z,1.34
2023-12-11T18:23:48.670Z,1.35
2023-12-11T18:26:51.130Z,1.47
2023-12-11T18:29:53.687Z,1.37
2023-12-11T18:32:56.206Z,1.39
2023-12-11T18:35:59.296Z,1.37
2023-12-11T18:39:01.744Z,1.46
2023-12-11T18:42:04.414Z,1.62
2023-12-11T18:45:07.679Z,1.52
2023-12-11T18:48:10.451Z,1.45
2023-12-11T18:51:22.905Z,1.46
2023-12-11T18:54:25.388Z,1.46
2023-12-11T18:57:28.226Z,1.44
2023-12-11T19:00:30.998Z,1.48
2023-12-11T19:03:33.861Z,1.47
2023-12-11T19:06:37.129Z,1.53
2023-12-11T19:09:39.592Z,1.55
2023-12-11T19:12:42.069Z,1.56
2023-12-11T19:15:44.909Z,1.49
2023-12-11T19:18:47.812Z,1.48
2023-12-11T19:21:51.941Z,1.46
2023-12-11T19:24:54.522Z,1.51
2023-12-11T19:27:57.113Z,1.48
2023-12-11T19:30:59.548Z,1.57
2023-12-11T19:34:02.354Z,1.63
2023-12-11T19:37:05.571Z,1.55
2023-12-11T19:40:08.827Z,1.58
2023-12-11T19:43:13.266Z,1.57
2023-12-11T19:46:16.081Z,1.49
2023-12-11T19:49:18.812Z,1.50
2023-12-11T19:52:21.649Z,1.48
2023-12-11T19:55:24.325Z,1.49
2023-12-11T19:58:27.010Z,1.52
2023-12-11T20:01:31.882Z,1.62
2023-12-11T20:04:34.804Z,1.54
2023-12-11T20:07:37.567Z,1.51
2023-12-11T20:10:40.587Z,1.68
2023-12-11T20:13:43.334Z,1.58
2023-12-11T20:16:45.804Z,1.82
2023-12-11T20:19:48.367Z,1.64
2023-12-11T20:22:50.810Z,1.61
2023-12-11T20:25:53.317Z,1.63
2023-12-11T20:28:55.849Z,1.64
2023-12-11T20:31:58.301Z,1.61
2023-12-11T20:35:00.939Z,1.64
2023-12-11T20:38:04.184Z,1.66
2023-12-11T20:41:06.753Z,1.60
2023-12-11T20:44:09.643Z,1.59
2023-12-11T20:47:12.075Z,1.49
2023-12-11T20:50:14.510Z,1.46
2023-12-11T20:53:16.993Z,1.42
2023-12-11T20:56:20.753Z,1.44
2023-12-11T20:59:23.165Z,1.49
2023-12-11T21:02:26.986Z,1.50
2023-12-11T21:05:29.463Z,1.37
2023-12-11T21:08:31.998Z,1.36
2023-12-11T21:11:38.660Z,1.34
2023-12-11T21:14:41.448Z,1.33
2023-12-11T21:17:44.021Z,1.34
2023-12-11T21:20:46.470Z,1.38
2023-12-11T21:23:49.944Z,1.36
2023-12-11T21:26:52.730Z,1.36
2023-12-11T21:29:55.130Z,1.39
2023-12-11T21:32:58.100Z,1.37
2023-12-11T21:36:00.567Z,1.38
2023-12-11T21:39:03.467Z,1.40
2023-12-11T21:42:06.193Z,1.44
2023-12-11T21:45:08.874Z,1.44
2023-12-11T21:48:11.426Z,1.39
2023-12-11T21:51:19.047Z,1.43
2023-12-11T21:54:22.765Z,1.46
2023-12-11T21:57:25.235Z,1.46
2023-12-11T22:00:27.681Z,1.39
2023-12-11T22:03:30.111Z,1.39
2023-12-11T22:06:34.437Z,1.47
2023-12-11T22:09:36.862Z,1.45
2023-12-11T22:12:39.249Z,1.47
2023-12-11T22:15:41.709Z,1.45
2023-12-11T22:18:46.867Z,1.44
2023-12-11T22:21:49.326Z,1.45
2023-12-11T22:24:51.738Z,1.47
2023-12-11T22:27:54.262Z,1.48
2023-12-11T22:30:57.170Z,1.59
2023-12-11T22:33:59.822Z,1.50
2023-12-11T22:37:02.342Z,1.50
2023-12-11T22:40:06.733Z,1.50
2023-12-11T22:43:09.213Z,1.49
2023-12-11T22:46:11.677Z,1.36
2023-12-11T22:49:14.403Z,1.37
2023-12-11T22:52:17.055Z,1.37
2023-12-11T22:55:19.452Z,1.44
2023-12-11T22:58:21.861Z,1.41
2023-12-11T23:01:24.714Z,1.34
2023-12-11T23:04:27.253Z,1.39
2023-12-11T23:07:30.012Z,1.35
2023-12-11T23:10:33.070Z,1.24
2023-12-11T23:13:35.551Z,1.27
2023-12-11T23:16:38.151Z,1.24
2023-12-11T23:19:41.363Z,1.14
2023-12-11T23:22:44.497Z,1.19
2023-12-11T23:25:54.545Z,1.24
2023-12-11T23:29:01.375Z,1.28
2023-12-11T23:32:04.063Z,1.21
2023-12-11T23:35:06.668Z,1.21
2023-12-11T23:38:09.029Z,1.32
2023-12-11T23:41:11.506Z,1.24
2023-12-11T23:44:13.924Z,1.19
2023-12-11T23:47:16.429Z,1.20
2023-12-11T23:50:19.126Z,1.21
2023-12-11T23:53:21.608Z,1.14
2023-12-11T23:56:24.291Z,1.18
2023-12-11T23:59:27.633Z,1.23
